Time;durP1;ratioP1;P1;durP2;ratioP2;P2;SDS_P1;SDS_P2;PMS_P1;PMS_P2;Temp;Humidity;BMP_temperature;BMP_pressure;BME280_temperature;BME280_humidity;BME280_pressure;Samples;Min_cycle;Max_cycle;Signal;HPM_P1;HPM_P2
2023/12/25 00:02:14;;;;;;;0.70;0.40;;;8.50;99.90;;;;;;5054137;28;20434;-84
2023/12/25 00:04:41;;;;;;;0.40;0.30;;;8.40;99.90;;;;;;5054510;28;20445;-80
2023/12/25 00:07:10;;;;;;;1.53;0.50;;;8.40;99.90;;;;;;5053548;28;20484;-80
2023/12/25 00:09:37;;;;;;;0.47;0.47;;;8.40;99.90;;;;;;5054157;28;20807;-80
2023/12/25 00:12:04;;;;;;;0.73;0.60;;;8.40;99.90;;;;;;5053811;28;20481;-80
2023/12/25 00:14:31;;;;;;;0.40;0.30;;;8.40;99.90;;;;;;5053597;28;20981;-80
2023/12/25 00:16:57;;;;;;;0.63;0.40;;;8.50;99.90;;;;;;5053826;28;20462;-80
2023/12/25 00:19:26;;;;;;;0.40;0.30;;;8.50;99.90;;;;;;5053840;28;20818;-80
2023/12/25 00:21:53;;;;;;;0.40;0.40;;;8.50;99.90;;;;;;5053614;28;20452;-80
2023/12/25 00:24:20;;;;;;;0.60;0.40;;;8.50;99.90;;;;;;5053965;28;20442;-80
2023/12/25 00:26:46;;;;;;;0.70;0.40;;;8.50;99.90;;;;;;5053777;28;20445;-80
2023/12/25 00:29:13;;;;;;;0.30;0.30;;;8.40;99.90;;;;;;5053437;28;20430;-80
2023/12/25 00:31:40;;;;;;;0.43;0.43;;;8.40;99.90;;;;;;5053891;28;20477;-80
2023/12/25 00:34:07;;;;;;;0.50;0.40;;;8.40;99.90;;;;;;5053022;28;20438;-80
2023/12/25 00:36:36;;;;;;;0.40;0.40;;;8.40;99.90;;;;;;5049720;28;20441;-82
2023/12/25 00:39:02;;;;;;;0.50;0.50;;;8.50;99.90;;;;;;5051097;28;20537;-80
2023/12/25 00:41:31;;;;;;;0.40;0.30;;;8.40;99.90;;;;;;5044418;28;20442;-81
2023/12/25 00:43:58;;;;;;;0.40;0.37;;;8.50;99.90;;;;;;5046154;28;20448;-80
2023/12/25 00:46:25;;;;;;;0.40;0.30;;;8.50;99.90;;;;;;5053051;28;20437;-80
2023/12/25 00:48:50;;;;;;;2.83;0.40;;;8.50;99.90;;;;;;5041083;28;20468;-80
2023/12/25 00:51:17;;;;;;;0.87;0.50;;;8.50;99.90;;;;;;5053094;28;20473;-81
2023/12/25 00:53:45;;;;;;;4.93;0.60;;;8.50;99.90;;;;;;5062689;28;20191;-79
2023/12/25 00:56:12;;;;;;;0.30;0.30;;;8.50;99.90;;;;;;5059414;28;20449;-80
2023/12/25 00:58:39;;;;;;;1.07;0.30;;;8.60;99.90;;;;;;5042732;28;20457;-80
2023/12/25 01:01:05;;;;;;;0.93;0.40;;;8.50;99.90;;;;;;5053441;28;20803;-80
2023/12/25 01:03:33;;;;;;;0.40;0.33;;;8.60;99.90;;;;;;5053587;28;20441;-81
2023/12/25 01:06:00;;;;;;;0.77;0.30;;;8.50;99.90;;;;;;5053449;28;20450;-80
2023/12/25 01:08:26;;;;;;;0.40;0.40;;;8.50;99.90;;;;;;5053027;28;20476;-80
2023/12/25 01:10:54;;;;;;;0.40;0.30;;;8.50;99.90;;;;;;5049713;28;20473;-80
2023/12/25 01:13:21;;;;;;;0.40;0.37;;;8.50;99.90;;;;;;5053652;28;20452;-80
2023/12/25 01:15:48;;;;;;;0.30;0.30;;;8.50;99.90;;;;;;5053755;28;20433;-80
2023/12/25 01:18:15;;;;;;;0.40;0.33;;;8.50;99.90;;;;;;5053332;28;20462;-80
2023/12/25 01:20:43;;;;;;;0.40;0.30;;;8.50;99.90;;;;;;5053145;28;20433;-80
2023/12/25 01:23:10;;;;;;;0.30;0.30;;;8.50;99.90;;;;;;5053262;28;20511;-80
2023/12/25 01:25:37;;;;;;;0.30;0.30;;;8.50;99.90;;;;;;5052964;28;20438;-80
2023/12/25 01:28:05;;;;;;;0.83;0.40;;;8.50;99.90;;;;;;5051898;28;20461;-80
2023/12/25 01:30:32;;;;;;;0.50;0.37;;;8.50;99.90;;;;;;5052389;28;20958;-80
2023/12/25 01:32:59;;;;;;;0.30;0.30;;;8.60;99.90;;;;;;5052690;28;20438;-80
2023/12/25 01:35:25;;;;;;;0.90;0.50;;;8.60;99.90;;;;;;5052000;28;20957;-80
2023/12/25 01:37:52;;;;;;;0.40;0.30;;;8.60;99.90;;;;;;5052539;28;20454;-80
2023/12/25 01:40:19;;;;;;;0.30;0.30;;;8.70;99.90;;;;;;5049077;28;20961;-80
2023/12/25 01:42:46;;;;;;;0.30;0.30;;;8.70;99.90;;;;;;5038497;28;20439;-81
2023/12/25 01:45:14;;;;;;;0.30;0.30;;;8.70;99.90;;;;;;5052256;28;20817;-81
2023/12/25 01:47:41;;;;;;;0.40;0.40;;;8.60;99.90;;;;;;5052559;28;20480;-80
2023/12/25 01:50:09;;;;;;;0.40;0.30;;;8.60;99.90;;;;;;5052288;28;20430;-80
2023/12/25 01:52:36;;;;;;;1.03;0.40;;;8.60;99.90;;;;;;5051782;28;20835;-80
2023/12/25 01:55:03;;;;;;;0.60;0.57;;;8.60;99.90;;;;;;5054035;28;20438;-80
2023/12/25 01:57:32;;;;;;;0.90;0.50;;;8.50;99.90;;;;;;5055892;28;20462;-80
2023/12/25 01:59:59;;;;;;;0.30;0.30;;;8.50;99.90;;;;;;5055753;28;20988;-81
2023/12/25 02:02:27;;;;;;;0.30;0.30;;;8.50;99.90;;;;;;5056362;28;20445;-80
2023/12/25 02:04:53;;;;;;;1.03;0.50;;;8.40;99.90;;;;;;5055885;28;20444;-80
2023/12/25 02:07:21;;;;;;;0.30;0.30;;;8.40;99.90;;;;;;5055799;28;20470;-80
2023/12/25 02:09:49;;;;;;;0.40;0.40;;;8.40;99.90;;;;;;5055724;28;20434;-81
2023/12/25 02:12:16;;;;;;;0.30;0.30;;;8.40;99.90;;;;;;5055792;28;20473;-82
2023/12/25 02:14:43;;;;;;;0.60;0.40;;;8.40;99.90;;;;;;5055197;28;20445;-82
2023/12/25 02:17:11;;;;;;;0.30;0.30;;;8.40;99.90;;;;;;5055183;28;20466;-80
2023/12/25 02:19:41;;;;;;;0.40;0.30;;;8.30;99.90;;;;;;5055847;28;20438;-80
2023/12/25 02:22:08;;;;;;;0.37;0.33;;;8.30;99.90;;;;;;5055991;28;20433;-80
2023/12/25 02:24:39;;;;;;;0.40;0.40;;;8.30;99.90;;;;;;5055313;28;20430;-80
2023/12/25 02:27:08;;;;;;;0.30;0.30;;;8.30;99.90;;;;;;5055587;28;20461;-81
2023/12/25 02:29:34;;;;;;;0.30;0.30;;;8.30;99.90;;;;;;5053048;28;20951;-80
2023/12/25 02:32:01;;;;;;;0.30;0.30;;;8.30;99.90;;;;;;5055261;28;20465;-80
2023/12/25 02:34:28;;;;;;;0.93;0.30;;;8.20;99.90;;;;;;5055558;28;20452;-80
2023/12/25 02:36:55;;;;;;;0.30;0.20;;;8.40;99.90;;;;;;5055481;28;20462;-80
2023/12/25 02:39:23;;;;;;;0.60;0.30;;;8.20;99.90;;;;;;5055368;28;20442;-80
2023/12/25 02:41:49;;;;;;;0.40;0.40;;;8.20;99.90;;;;;;5053987;28;20442;-81
2023/12/25 02:44:17;;;;;;;0.40;0.30;;;8.20;99.90;;;;;;5054803;28;20438;-80
2023/12/25 02:46:44;;;;;;;1.23;0.60;;;8.20;99.90;;;;;;5054792;28;20438;-80
2023/12/25 02:49:11;;;;;;;0.30;0.30;;;8.10;99.90;;;;;;5055217;28;20437;-80
2023/12/25 02:51:38;;;;;;;0.30;0.30;;;8.20;99.90;;;;;;5054446;28;20470;-80
2023/12/25 02:54:04;;;;;;;0.30;0.30;;;8.20;99.90;;;;;;5055325;28;20445;-80
2023/12/25 02:56:31;;;;;;;1.03;0.37;;;8.20;99.90;;;;;;5055172;28;20449;-82
2023/12/25 02:58:58;;;;;;;0.60;0.40;;;8.20;99.90;;;;;;5055446;28;20434;-80
2023/12/25 03:01:26;;;;;;;0.60;0.33;;;8.20;99.90;;;;;;5055651;28;20803;-80
2023/12/25 03:03:52;;;;;;;0.30;0.30;;;8.20;99.90;;;;;;5055828;28;20445;-80
2023/12/25 03:06:19;;;;;;;0.30;0.30;;;8.30;99.90;;;;;;5067441;28;20433;-78
2023/12/25 03:08:46;;;;;;;0.30;0.20;;;8.20;99.90;;;;;;5054173;28;20484;-80
2023/12/25 03:11:13;;;;;;;0.37;0.33;;;8.30;99.90;;;;;;5054364;28;20486;-80
2023/12/25 03:13:39;;;;;;;0.30;0.30;;;8.30;99.90;;;;;;5054760;28;20442;-80
2023/12/25 03:16:07;;;;;;;0.30;0.30;;;8.30;99.90;;;;;;5054725;28;20438;-80
2023/12/25 03:18:35;;;;;;;0.43;0.30;;;8.30;99.90;;;;;;5054433;28;20461;-82
2023/12/25 03:21:01;;;;;;;0.40;0.30;;;8.30;99.90;;;;;;5054480;28;20434;-80
2023/12/25 03:23:28;;;;;;;0.60;0.40;;;8.20;99.90;;;;;;5054190;28;20452;-80
2023/12/25 03:25:56;;;;;;;0.90;0.40;;;8.30;99.90;;;;;;5054119;28;20442;-80
2023/12/25 03:28:23;;;;;;;0.30;0.30;;;8.20;99.90;;;;;;5053948;28;20546;-80
2023/12/25 03:30:50;;;;;;;0.30;0.27;;;8.30;99.90;;;;;;5054107;28;20953;-80
2023/12/25 03:33:17;;;;;;;0.30;0.30;;;8.30;99.90;;;;;;5054181;28;20485;-80
2023/12/25 03:35:45;;;;;;;0.67;0.30;;;8.30;99.90;;;;;;5053642;28;20474;-80
2023/12/25 03:38:13;;;;;;;0.40;0.30;;;8.20;99.90;;;;;;5053861;28;20465;-81
2023/12/25 03:40:39;;;;;;;0.83;0.47;;;8.20;99.90;;;;;;5053995;28;20442;-80
2023/12/25 03:43:06;;;;;;;0.53;0.53;;;8.20;99.90;;;;;;5053790;28;20808;-80
2023/12/25 03:45:33;;;;;;;0.30;0.30;;;8.20;99.90;;;;;;5053791;28;20438;-80
2023/12/25 03:48:00;;;;;;;3.53;0.40;;;8.20;99.90;;;;;;5053833;28;20998;-80
2023/12/25 03:50:26;;;;;;;3.90;0.30;;;8.30;99.90;;;;;;5053905;28;20445;-79
2023/12/25 03:52:54;;;;;;;0.30;0.30;;;8.30;99.90;;;;;;5053594;28;20826;-79
2023/12/25 03:55:21;;;;;;;1.30;0.50;;;8.30;99.90;;;;;;5054186;28;20453;-80
2023/12/25 03:57:48;;;;;;;0.30;0.30;;;8.30;99.90;;;;;;5053377;28;20454;-79
2023/12/25 04:00:16;;;;;;;0.53;0.37;;;8.30;99.90;;;;;;5053528;28;20986;-80
2023/12/25 04:02:42;;;;;;;1.13;0.40;;;8.30;99.90;;;;;;5053334;28;20438;-80
2023/12/25 04:05:10;;;;;;;0.40;0.30;;;8.30;99.90;;;;;;5053800;28;20521;-79
2023/12/25 04:07:37;;;;;;;0.70;0.40;;;8.30;99.90;;;;;;5052201;28;20465;-79
2023/12/25 04:10:06;;;;;;;0.40;0.30;;;8.30;99.90;;;;;;5053503;28;20438;-80
2023/12/25 04:12:33;;;;;;;0.30;0.30;;;8.30;99.90;;;;;;5053503;28;20477;-81
2023/12/25 04:15:00;;;;;;;0.30;0.30;;;8.30;99.90;;;;;;5053181;28;20927;-79
2023/12/25 04:17:28;;;;;;;0.40;0.40;;;8.30;99.90;;;;;;5052689;28;20462;-79
2023/12/25 04:19:54;;;;;;;0.30;0.20;;;8.30;99.90;;;;;;5053207;28;20445;-79
2023/12/25 04:22:21;;;;;;;0.50;0.50;;;8.30;99.90;;;;;;5052798;28;20943;-79
2023/12/25 04:24:48;;;;;;;0.30;0.30;;;8.30;99.90;;;;;;5053323;28;20474;-79
2023/12/25 04:27:18;;;;;;;0.40;0.40;;;8.30;99.90;;;;;;5053747;28;20537;-83
2023/12/25 04:29:45;;;;;;;1.17;0.40;;;8.20;99.90;;;;;;5054510;28;20442;-83
2023/12/25 04:32:12;;;;;;;1.17;0.37;;;8.30;99.90;;;;;;5054031;28;20815;-83
2023/12/25 04:34:38;;;;;;;0.40;0.30;;;8.20;99.90;;;;;;5054143;28;20444;-83
2023/12/25 04:37:05;;;;;;;0.30;0.30;;;8.10;99.90;;;;;;5054020;28;20473;-83
2023/12/25 04:39:33;;;;;;;1.40;0.30;;;8.10;99.90;;;;;;5054614;28;20442;-83
2023/12/25 04:42:00;;;;;;;0.40;0.40;;;8.10;99.90;;;;;;5054815;28;20466;-83
2023/12/25 04:44:28;;;;;;;0.93;0.40;;;8.10;99.90;;;;;;5054497;28;20454;-83
2023/12/25 04:46:54;;;;;;;0.50;0.50;;;8.20;99.90;;;;;;5055861;28;20474;-84
2023/12/25 04:49:21;;;;;;;0.60;0.30;;;8.30;99.90;;;;;;5054988;28;20433;-83
2023/12/25 04:51:48;;;;;;;0.50;0.30;;;8.30;99.90;;;;;;5056273;28;20488;-83
2023/12/25 04:54:15;;;;;;;0.40;0.40;;;8.30;99.90;;;;;;5058367;28;20473;-83
2023/12/25 04:56:42;;;;;;;0.40;0.37;;;8.30;99.90;;;;;;5058103;28;20442;-83
2023/12/25 04:59:10;;;;;;;0.50;0.50;;;8.30;99.90;;;;;;5059628;28;20833;-83
2023/12/25 05:01:38;;;;;;;0.30;0.30;;;8.30;99.90;;;;;;5057895;28;20453;-83
2023/12/25 05:04:05;;;;;;;0.37;0.30;;;8.30;99.90;;;;;;5058542;28;20442;-83
2023/12/25 05:06:32;;;;;;;0.50;0.50;;;8.30;99.90;;;;;;5041161;28;20443;-83
2023/12/25 05:08:59;;;;;;;0.40;0.40;;;8.30;99.90;;;;;;5056900;28;20855;-83
2023/12/25 05:11:26;;;;;;;0.30;0.30;;;8.30;99.90;;;;;;5057235;28;20449;-84
2023/12/25 05:13:53;;;;;;;0.60;0.37;;;8.20;99.90;;;;;;5056918;28;20480;-83
2023/12/25 05:16:19;;;;;;;0.40;0.30;;;8.20;99.90;;;;;;5056413;28;20461;-83
2023/12/25 05:18:47;;;;;;;0.40;0.40;;;8.20;99.90;;;;;;5075405;28;20466;-81
2023/12/25 05:21:14;;;;;;;0.40;0.40;;;8.10;99.90;;;;;;5052719;28;20465;-83
2023/12/25 05:23:41;;;;;;;0.30;0.20;;;8.10;99.90;;;;;;5053052;28;20438;-83
2023/12/25 05:26:07;;;;;;;0.33;0.30;;;8.10;99.90;;;;;;5052947;28;20449;-83
2023/12/25 05:28:35;;;;;;;0.30;0.30;;;8.10;99.90;;;;;;5054428;28;20468;-83
2023/12/25 05:31:01;;;;;;;0.30;0.30;;;8.10;99.90;;;;;;5056305;28;20438;-83
2023/12/25 05:33:28;;;;;;;0.33;0.30;;;8.10;99.90;;;;;;5057143;28;20469;-83
2023/12/25 05:35:56;;;;;;;0.30;0.30;;;8.00;99.90;;;;;;5051275;28;20446;-84
2023/12/25 05:38:23;;;;;;;0.40;0.40;;;8.00;99.90;;;;;;5037365;28;20532;-83
2023/12/25 05:40:50;;;;;;;0.30;0.20;;;8.00;99.90;;;;;;5037109;28;20446;-83
2023/12/25 05:43:16;;;;;;;0.40;0.30;;;8.10;99.90;;;;;;5037155;28;20538;-84
2023/12/25 05:45:43;;;;;;;0.30;0.30;;;8.10;99.90;;;;;;5055942;28;20792;-84
2023/12/25 05:48:10;;;;;;;0.40;0.30;;;8.00;99.90;;;;;;5057150;28;20464;-84
2023/12/25 05:50:37;;;;;;;0.30;0.30;;;7.90;99.90;;;;;;5056938;28;20453;-83
2023/12/25 05:53:05;;;;;;;0.40;0.40;;;7.90;99.90;;;;;;5057436;28;20485;-83
2023/12/25 05:55:31;;;;;;;0.43;0.43;;;7.90;99.90;;;;;;5057400;28;20456;-83
2023/12/25 05:57:59;;;;;;;0.30;0.30;;;7.90;99.90;;;;;;5056979;28;20454;-83
2023/12/25 06:00:25;;;;;;;1.27;0.30;;;7.90;99.90;;;;;;5057011;28;20449;-84
2023/12/25 06:02:52;;;;;;;0.60;0.57;;;7.90;99.90;;;;;;5057512;28;20437;-83
2023/12/25 06:05:19;;;;;;;0.93;0.30;;;7.90;99.90;;;;;;5057902;28;20446;-83
2023/12/25 06:07:45;;;;;;;0.87;0.57;;;7.80;99.90;;;;;;5056735;28;20481;-83
2023/12/25 06:10:14;;;;;;;0.40;0.30;;;7.80;99.90;;;;;;5057339;28;20813;-84
2023/12/25 06:12:40;;;;;;;0.30;0.30;;;7.80;99.90;;;;;;5056732;28;20488;-83
2023/12/25 06:15:08;;;;;;;0.50;0.40;;;7.80;99.90;;;;;;5056839;28;20456;-83
2023/12/25 06:17:35;;;;;;;0.40;0.40;;;7.80;99.90;;;;;;5057556;28;20519;-83
2023/12/25 06:20:02;;;;;;;0.30;0.30;;;7.70;99.90;;;;;;5057120;28;20951;-83
2023/12/25 06:22:29;;;;;;;0.40;0.30;;;7.70;99.90;;;;;;5056383;28;20430;-83
2023/12/25 06:24:56;;;;;;;0.40;0.30;;;7.70;99.90;;;;;;5056921;28;20950;-83
2023/12/25 06:27:23;;;;;;;0.40;0.30;;;7.70;99.90;;;;;;5056748;28;20468;-83
2023/12/25 06:29:50;;;;;;;0.30;0.30;;;7.70;99.90;;;;;;5056397;28;20989;-83
2023/12/25 06:32:16;;;;;;;0.40;0.30;;;7.70;99.90;;;;;;5056011;28;20482;-83
2023/12/25 06:34:43;;;;;;;0.50;0.33;;;7.70;99.90;;;;;;5057054;28;20449;-83
2023/12/25 06:37:10;;;;;;;0.80;0.67;;;7.70;99.90;;;;;;5055758;28;20466;-83
2023/12/25 06:39:37;;;;;;;0.30;0.30;;;7.70;99.90;;;;;;5055786;28;20461;-83
2023/12/25 06:42:04;;;;;;;0.83;0.83;;;7.70;99.90;;;;;;5056515;28;20810;-83
2023/12/25 06:44:32;;;;;;;0.30;0.30;;;7.70;99.90;;;;;;5056904;28;20947;-83
2023/12/25 06:46:58;;;;;;;0.50;0.37;;;7.70;99.90;;;;;;5057819;28;20476;-83
2023/12/25 06:49:25;;;;;;;0.50;0.50;;;7.70;99.90;;;;;;5057330;28;20446;-83
2023/12/25 06:51:52;;;;;;;0.30;0.30;;;7.90;99.90;;;;;;5056877;28;20442;-83
2023/12/25 06:54:19;;;;;;;0.50;0.50;;;7.70;99.90;;;;;;5058114;28;20477;-83
2023/12/25 06:56:45;;;;;;;0.40;0.30;;;7.70;99.90;;;;;;5057374;28;20442;-83
2023/12/25 06:59:12;;;;;;;0.77;0.30;;;7.70;99.90;;;;;;5058650;28;20468;-83
2023/12/25 07:01:40;;;;;;;0.30;0.30;;;7.70;99.90;;;;;;5059164;28;20438;-83
2023/12/25 07:04:09;;;;;;;0.30;0.30;;;7.70;99.90;;;;;;5057722;28;20476;-83
2023/12/25 07:06:36;;;;;;;0.40;0.30;;;7.70;99.90;;;;;;5056845;28;20528;-83
2023/12/25 07:09:03;;;;;;;0.37;0.30;;;7.70;99.90;;;;;;5057093;28;20431;-83
2023/12/25 07:11:29;;;;;;;0.40;0.30;;;7.60;99.90;;;;;;5057765;28;20955;-83
2023/12/25 07:13:59;;;;;;;0.73;0.50;;;7.70;99.90;;;;;;5057354;28;20482;-83
2023/12/25 07:16:26;;;;;;;0.40;0.30;;;7.70;99.90;;;;;;5058269;28;20804;-82
2023/12/25 07:18:55;;;;;;;0.40;0.30;;;7.70;99.90;;;;;;5058409;28;20966;-82
2023/12/25 07:21:22;;;;;;;0.40;0.37;;;7.70;99.90;;;;;;5057165;28;20439;-82
2023/12/25 07:23:49;;;;;;;0.40;0.30;;;7.70;99.90;;;;;;5057067;28;20488;-83
2023/12/25 07:26:17;;;;;;;0.30;0.30;;;7.70;99.90;;;;;;5059805;28;20453;-82
2023/12/25 07:28:44;;;;;;;0.40;0.30;;;7.60;99.90;;;;;;5063952;28;20457;-82
2023/12/25 07:31:11;;;;;;;0.40;0.40;;;7.60;99.90;;;;;;5071455;28;20997;-82
2023/12/25 07:33:38;;;;;;;0.40;0.30;;;7.60;99.90;;;;;;5054853;28;20478;-82
2023/12/25 07:36:07;;;;;;;0.37;0.30;;;7.70;99.90;;;;;;5054714;28;20434;-83
2023/12/25 07:38:34;;;;;;;0.30;0.30;;;7.70;99.90;;;;;;5054470;28;20546;-82
2023/12/25 07:41:01;;;;;;;0.40;0.30;;;7.70;99.90;;;;;;5054930;28;20454;-83
2023/12/25 07:43:28;;;;;;;0.40;0.30;;;7.70;99.90;;;;;;5054596;28;20442;-83
2023/12/25 07:45:55;;;;;;;0.40;0.40;;;7.80;99.90;;;;;;5054410;28;20457;-83
2023/12/25 07:48:21;;;;;;;0.40;0.40;;;7.90;99.90;;;;;;5054717;28;20461;-83
2023/12/25 07:50:49;;;;;;;0.50;0.50;;;7.90;99.90;;;;;;5054845;28;20445;-83
2023/12/25 07:53:18;;;;;;;0.33;0.30;;;7.90;99.90;;;;;;5053965;28;20537;-83
2023/12/25 07:55:44;;;;;;;0.30;0.30;;;7.90;99.90;;;;;;5055316;28;20445;-83
2023/12/25 07:58:11;;;;;;;0.70;0.40;;;7.90;99.90;;;;;;5054690;28;20498;-83
2023/12/25 08:00:38;;;;;;;0.90;0.70;;;8.00;99.90;;;;;;5059214;28;20446;-83
2023/12/25 08:03:05;;;;;;;0.70;0.33;;;8.00;99.90;;;;;;5058775;28;20804;-83
2023/12/25 08:05:33;;;;;;;0.50;0.40;;;8.00;99.90;;;;;;5060501;28;20505;-83
2023/12/25 08:08:00;;;;;;;0.30;0.30;;;8.00;99.90;;;;;;5051656;28;20983;-83
2023/12/25 08:10:28;;;;;;;0.47;0.40;;;8.00;99.90;;;;;;5052722;28;20442;-79
2023/12/25 08:12:55;;;;;;;0.50;0.40;;;8.00;99.90;;;;;;5053903;28;20490;-82
2023/12/25 08:15:22;;;;;;;0.40;0.40;;;8.00;99.90;;;;;;5054581;28;20457;-82
2023/12/25 08:17:48;;;;;;;0.67;0.33;;;8.00;99.90;;;;;;5053806;28;21003;-82
2023/12/25 08:20:15;;;;;;;0.30;0.30;;;8.10;99.90;;;;;;5053938;28;20446;-82
2023/12/25 08:22:42;;;;;;;0.93;0.40;;;8.10;99.90;;;;;;5054802;28;20441;-82
2023/12/25 08:25:09;;;;;;;1.47;0.50;;;8.20;99.90;;;;;;5056869;28;20449;-83
2023/12/25 08:27:37;;;;;;;0.30;0.30;;;8.20;99.90;;;;;;5056023;28;20469;-82
2023/12/25 08:30:05;;;;;;;2.00;0.90;;;8.30;99.90;;;;;;5056117;28;20446;-83
2023/12/25 08:32:32;;;;;;;0.47;0.47;;;8.30;99.90;;;;;;5056451;28;20804;-81
2023/12/25 08:34:59;;;;;;;0.40;0.40;;;8.30;99.90;;;;;;5056610;28;20472;-82
2023/12/25 08:37:26;;;;;;;0.40;0.40;;;8.30;99.90;;;;;;5056348;28;20469;-83
2023/12/25 08:39:53;;;;;;;0.77;0.30;;;8.30;99.90;;;;;;5056065;28;20969;-83
2023/12/25 08:42:20;;;;;;;0.37;0.33;;;8.40;99.90;;;;;;5055868;28;20449;-83
2023/12/25 08:44:48;;;;;;;0.50;0.30;;;8.50;99.90;;;;;;5056675;28;20446;-83
2023/12/25 08:47:15;;;;;;;0.40;0.30;;;8.50;99.90;;;;;;5056789;28;20979;-83
2023/12/25 08:49:42;;;;;;;1.07;0.40;;;8.60;99.90;;;;;;5057249;28;20456;-83
2023/12/25 08:52:09;;;;;;;0.53;0.50;;;8.80;99.90;;;;;;5057850;28;20464;-83
2023/12/25 08:54:35;;;;;;;0.40;0.40;;;8.80;99.90;;;;;;5057145;28;21006;-83
2023/12/25 08:57:04;;;;;;;0.40;0.40;;;9.00;99.90;;;;;;5059739;28;20472;-82
2023/12/25 08:59:30;;;;;;;1.30;0.40;;;9.10;99.90;;;;;;5059052;28;20449;-81
2023/12/25 09:01:58;;;;;;;0.70;0.50;;;9.20;99.90;;;;;;5058534;28;20442;-82
2023/12/25 09:04:25;;;;;;;0.30;0.27;;;9.30;99.90;;;;;;5060206;28;20433;-83
2023/12/25 09:06:52;;;;;;;0.50;0.40;;;9.20;99.90;;;;;;5062420;28;21771;-83
2023/12/25 09:09:19;;;;;;;2.10;0.70;;;9.20;99.90;;;;;;5060691;28;20934;-83
2023/12/25 09:11:47;;;;;;;0.30;0.30;;;9.30;99.90;;;;;;5060900;28;20452;-83
2023/12/25 09:14:14;;;;;;;0.30;0.30;;;9.30;99.90;;;;;;5060771;28;20485;-83
2023/12/25 09:16:41;;;;;;;0.50;0.50;;;9.30;99.90;;;;;;5067258;28;20425;-82
2023/12/25 09:19:09;;;;;;;1.43;0.40;;;9.40;99.90;;;;;;5061254;28;20445;-82
2023/12/25 09:21:39;;;;;;;0.43;0.43;;;9.40;99.90;;;;;;5057990;28;20450;-83
2023/12/25 09:24:06;;;;;;;0.60;0.40;;;9.40;99.90;;;;;;5057644;28;20449;-83
2023/12/25 09:26:33;;;;;;;1.10;0.47;;;9.40;99.90;;;;;;5057429;28;20438;-83
2023/12/25 09:28:59;;;;;;;1.73;0.80;;;9.60;99.90;;;;;;5058032;28;20441;-83
2023/12/25 09:31:26;;;;;;;0.60;0.40;;;9.80;99.90;;;;;;5057421;28;20444;-83
2023/12/25 09:33:53;;;;;;;0.40;0.40;;;9.70;99.90;;;;;;5058038;28;20573;-83
2023/12/25 09:36:21;;;;;;;0.40;0.40;;;9.80;99.90;;;;;;5058539;28;20437;-83
2023/12/25 09:38:47;;;;;;;0.50;0.40;;;10.00;99.90;;;;;;5057674;28;20466;-83
2023/12/25 09:41:15;;;;;;;0.30;0.30;;;10.10;99.90;;;;;;5057285;28;20449;-83
2023/12/25 09:43:44;;;;;;;0.83;0.30;;;10.10;99.90;;;;;;5058076;28;20434;-83
2023/12/25 09:46:11;;;;;;;0.50;0.30;;;10.10;99.90;;;;;;5060083;28;20442;-83
2023/12/25 09:48:39;;;;;;;1.73;0.40;;;10.30;99.90;;;;;;5058754;28;20466;-83
2023/12/25 09:51:06;;;;;;;0.40;0.40;;;10.40;99.90;;;;;;5057376;28;20942;-83
2023/12/25 09:53:35;;;;;;;1.07;0.57;;;10.50;99.90;;;;;;5056917;28;20915;-83
2023/12/25 09:56:04;;;;;;;0.40;0.40;;;11.30;99.90;;;;;;5057900;28;20519;-83
2023/12/25 09:58:32;;;;;;;0.40;0.30;;;12.60;99.90;;;;;;5057984;28;20465;-82
2023/12/25 10:01:00;;;;;;;0.47;0.30;;;13.80;99.90;;;;;;5058522;28;20445;-82
2023/12/25 10:03:27;;;;;;;0.57;0.40;;;14.50;99.90;;;;;;5057548;28;20453;-80
2023/12/25 10:05:54;;;;;;;4.20;0.40;;;14.90;99.90;;;;;;5056720;28;20450;-80
2023/12/25 10:08:21;;;;;;;0.60;0.30;;;14.90;99.90;;;;;;5056346;28;20843;-79
2023/12/25 10:10:53;;;;;;;0.60;0.50;;;14.70;99.90;;;;;;5058200;28;20951;-80
2023/12/25 10:13:21;;;;;;;0.63;0.40;;;14.30;99.90;;;;;;5056969;28;20438;-79
2023/12/25 10:15:50;;;;;;;1.03;0.60;;;14.00;99.90;;;;;;5056553;28;20441;-80
2023/12/25 10:18:21;;;;;;;0.77;0.40;;;13.60;99.90;;;;;;5060847;28;20469;-81
2023/12/25 10:20:56;;;;;;;1.43;0.33;;;13.30;99.90;;;;;;5056392;28;20492;-81
2023/12/25 10:23:28;;;;;;;0.90;0.40;;;12.90;99.90;;;;;;5059842;28;20430;-81
2023/12/25 10:25:57;;;;;;;0.40;0.30;;;12.60;99.90;;;;;;5063291;28;20492;-81
2023/12/25 10:28:26;;;;;;;0.90;0.50;;;12.50;99.90;;;;;;5062362;28;20484;-81
2023/12/25 10:30:59;;;;;;;0.40;0.30;;;12.60;99.90;;;;;;5062921;28;20437;-82
2023/12/25 10:33:26;;;;;;;0.40;0.33;;;12.40;99.90;;;;;;5061579;28;20426;-84
2023/12/25 10:36:03;;;;;;;0.40;0.30;;;12.40;99.90;;;;;;5057965;28;20457;-84
2023/12/25 10:38:32;;;;;;;0.73;0.30;;;12.20;99.90;;;;;;5059004;28;20465;-82
2023/12/25 10:41:20;;;;;;;0.30;0.30;;;12.30;99.90;;;;;;5061285;28;20454;-81
2023/12/25 10:43:52;;;;;;;0.40;0.40;;;12.20;99.90;;;;;;5061180;28;20528;-81
2023/12/25 10:46:21;;;;;;;0.40;0.30;;;12.20;99.90;;;;;;5059580;28;20461;-82
2023/12/25 10:48:50;;;;;;;0.40;0.40;;;11.90;99.90;;;;;;5059791;28;20838;-81
2023/12/25 10:51:24;;;;;;;0.50;0.40;;;11.80;99.90;;;;;;5061645;28;20449;-81
2023/12/25 10:53:51;;;;;;;0.40;0.40;;;11.70;99.90;;;;;;5060937;28;20466;-82
2023/12/25 10:56:21;;;;;;;0.50;0.43;;;11.70;99.90;;;;;;5060591;28;20450;-82
2023/12/25 10:58:50;;;;;;;0.40;0.30;;;11.50;99.90;;;;;;5058366;28;20516;-82
2023/12/25 11:01:22;;;;;;;0.30;0.30;;;11.60;99.90;;;;;;5058516;28;20438;-81
2023/12/25 11:03:49;;;;;;;0.40;0.30;;;11.60;99.90;;;;;;5059332;28;20418;-81
2023/12/25 11:06:16;;;;;;;0.83;0.83;;;11.60;99.90;;;;;;5058552;28;20446;-82
2023/12/25 11:08:44;;;;;;;1.43;0.30;;;11.60;99.90;;;;;;5058287;28;20485;-81
2023/12/25 11:11:12;;;;;;;0.40;0.40;;;11.60;99.90;;;;;;5057945;28;20461;-81
2023/12/25 11:13:41;;;;;;;0.40;0.30;;;11.60;99.90;;;;;;5058866;28;20442;-81
2023/12/25 11:16:08;;;;;;;0.30;0.30;;;11.50;99.90;;;;;;5059056;28;20438;-82
2023/12/25 11:18:37;;;;;;;0.30;0.30;;;11.50;99.90;;;;;;5058740;28;20840;-82
2023/12/25 11:21:04;;;;;;;2.20;0.40;;;11.50;99.90;;;;;;5059007;28;20459;-81
2023/12/25 11:23:32;;;;;;;0.80;0.40;;;11.40;99.90;;;;;;5059068;28;20814;-81
2023/12/25 11:26:00;;;;;;;0.70;0.30;;;11.40;99.90;;;;;;5062259;28;20442;-82
2023/12/25 11:28:27;;;;;;;0.83;0.57;;;11.30;99.90;;;;;;5073397;28;20965;-81
2023/12/25 11:30:55;;;;;;;0.30;0.30;;;11.20;99.90;;;;;;5055342;28;20522;-82
2023/12/25 11:33:22;;;;;;;0.30;0.30;;;11.10;99.90;;;;;;5054856;28;20441;-82
2023/12/25 11:35:49;;;;;;;0.40;0.40;;;11.10;99.90;;;;;;5055488;28;20489;-82
2023/12/25 11:38:29;;;;;;;0.40;0.37;;;11.10;99.90;;;;;;5054928;28;20464;-82
2023/12/25 11:41:02;;;;;;;0.60;0.37;;;11.10;99.90;;;;;;5055195;28;20446;-82
2023/12/25 11:43:31;;;;;;;0.40;0.30;;;11.10;99.90;;;;;;5055226;28;20535;-82
2023/12/25 11:46:03;;;;;;;0.87;0.30;;;11.00;99.90;;;;;;5055255;28;20442;-82
2023/12/25 11:48:32;;;;;;;0.40;0.30;;;11.00;99.90;;;;;;5054975;28;20457;-83
2023/12/25 11:51:19;;;;;;;0.30;0.30;;;10.90;99.90;;;;;;5057266;28;20442;-83
2023/12/25 11:53:46;;;;;;;0.30;0.30;;;11.00;99.90;;;;;;5062685;28;20426;-82
2023/12/25 11:56:13;;;;;;;0.40;0.30;;;10.90;99.90;;;;;;5062068;28;21046;-83
2023/12/25 11:58:40;;;;;;;0.53;0.30;;;10.90;99.90;;;;;;5054299;28;20470;-83
2023/12/25 12:01:08;;;;;;;0.30;0.30;;;10.90;99.90;;;;;;5055159;28;20450;-83
2023/12/25 12:03:35;;;;;;;0.50;0.40;;;11.00;99.90;;;;;;5056166;28;20448;-83
2023/12/25 12:06:02;;;;;;;0.40;0.30;;;10.90;99.90;;;;;;5054738;28;20903;-85
2023/12/25 12:08:29;;;;;;;0.30;0.30;;;10.90;99.90;;;;;;5054194;28;21041;-84
2023/12/25 12:10:56;;;;;;;6.27;0.40;;;11.00;99.90;;;;;;5054919;28;20876;-84
2023/12/25 12:13:24;;;;;;;1.50;0.57;;;10.90;99.90;;;;;;5054611;28;20476;-84
2023/12/25 12:15:52;;;;;;;0.30;0.30;;;11.00;99.90;;;;;;5054600;28;20982;-84
2023/12/25 12:18:20;;;;;;;0.30;0.27;;;11.10;99.90;;;;;;5056160;28;20469;-84
2023/12/25 12:20:47;;;;;;;0.40;0.37;;;11.10;99.90;;;;;;5055998;28;20437;-84
2023/12/25 12:23:15;;;;;;;0.40;0.30;;;10.90;99.90;;;;;;5056531;28;20446;-84
2023/12/25 12:25:42;;;;;;;0.40;0.30;;;10.80;99.90;;;;;;5056548;28;20437;-84
2023/12/25 12:28:09;;;;;;;0.30;0.20;;;10.80;99.90;;;;;;5057347;28;20466;-83
2023/12/25 12:30:36;;;;;;;0.30;0.30;;;10.80;99.90;;;;;;5057854;28;20453;-82
2023/12/25 12:33:04;;;;;;;0.40;0.40;;;10.70;99.90;;;;;;5057419;28;20507;-82
2023/12/25 12:35:34;;;;;;;0.30;0.30;;;10.80;99.90;;;;;;5057770;28;20500;-82
2023/12/25 12:38:01;;;;;;;0.50;0.30;;;10.70;99.90;;;;;;5056910;28;20473;-82
2023/12/25 12:40:28;;;;;;;0.50;0.33;;;10.60;99.90;;;;;;5056567;28;20859;-83
2023/12/25 12:42:55;;;;;;;1.27;0.30;;;10.60;99.90;;;;;;5057042;28;20432;-83
2023/12/25 12:45:22;;;;;;;1.17;0.40;;;10.60;99.90;;;;;;5057718;28;20445;-83
2023/12/25 12:47:52;;;;;;;0.40;0.37;;;10.60;99.90;;;;;;5058583;28;20473;-83
2023/12/25 12:50:19;;;;;;;0.30;0.20;;;10.60;99.90;;;;;;5058342;28;20495;-83
2023/12/25 12:52:47;;;;;;;0.40;0.37;;;10.60;99.90;;;;;;5058238;28;20543;-83
2023/12/25 12:55:14;;;;;;;0.30;0.30;;;10.70;99.90;;;;;;5056039;28;20511;-83
2023/12/25 12:57:41;;;;;;;0.40;0.40;;;10.80;99.90;;;;;;5056022;28;20477;-83